createdAt,value
2019-05-17T00:00:12.370Z,1009.90
2019-05-17T00:01:12.353Z,1009.87
2019-05-17T00:02:12.330Z,1009.90
2019-05-17T00:03:12.311Z,1009.90
2019-05-17T00:04:12.290Z,1009.89
2019-05-17T00:05:12.272Z,1009.84
2019-05-17T00:06:12.253Z,1009.87
2019-05-17T00:07:12.232Z,1009.87
2019-05-17T00:08:12.209Z,1009.88
2019-05-17T00:09:12.189Z,1009.83
2019-05-17T00:10:12.166Z,1009.85
2019-05-17T00:11:12.148Z,1009.86
2019-05-17T00:12:12.125Z,1009.82
2019-05-17T00:13:14.605Z,1009.88
2019-05-17T00:14:12.089Z,1009.83
2019-05-17T00:15:12.067Z,1009.81
2019-05-17T00:16:12.042Z,1009.87
2019-05-17T00:17:12.021Z,1009.83
2019-05-17T00:18:12.007Z,1009.80
2019-05-17T00:19:11.983Z,1009.82
2019-05-17T00:20:11.965Z,1009.79
2019-05-17T00:21:11.943Z,1009.72
2019-05-17T00:22:11.921Z,1009.69
2019-05-17T00:23:11.918Z,1009.65
2019-05-17T00:24:11.878Z,1009.61
2019-05-17T00:25:11.862Z,1009.59
2019-05-17T00:26:11.841Z,1009.57
2019-05-17T00:27:11.825Z,1009.60
2019-05-17T00:28:11.794Z,1009.61
2019-05-17T00:29:11.776Z,1009.56
2019-05-17T00:30:11.759Z,1009.65
2019-05-17T00:31:11.739Z,1009.63
2019-05-17T00:32:11.711Z,1009.61
2019-05-17T00:33:11.693Z,1009.61
2019-05-17T00:34:11.678Z,1009.59
2019-05-17T00:35:11.659Z,1009.57
2019-05-17T00:36:11.634Z,1009.53
2019-05-17T00:37:11.612Z,1009.49
2019-05-17T00:38:11.596Z,1009.46
2019-05-17T00:39:11.573Z,1009.48
2019-05-17T00:40:11.551Z,1009.48
2019-05-17T00:41:11.531Z,1009.48
2019-05-17T00:42:11.511Z,1009.45
2019-05-17T00:43:11.489Z,1009.44
2019-05-17T00:44:11.467Z,1009.43
2019-05-17T00:45:11.446Z,1009.42
2019-05-17T00:46:11.428Z,1009.40
2019-05-17T00:47:11.410Z,1009.39
2019-05-17T00:48:11.384Z,1009.41
2019-05-17T00:49:11.366Z,1009.41
2019-05-17T00:50:11.347Z,1009.41
2019-05-17T00:51:11.346Z,1009.44
2019-05-17T00:52:11.301Z,1009.45
2019-05-17T00:53:11.283Z,1009.45
2019-05-17T00:54:11.262Z,1009.43
2019-05-17T00:55:11.241Z,1009.53
2019-05-17T00:56:11.220Z,1009.51
2019-05-17T00:57:11.202Z,1009.49
2019-05-17T00:58:11.180Z,1009.48
2019-05-17T00:59:11.172Z,1009.50
2019-05-17T01:00:11.139Z,1009.48
2019-05-17T01:01:11.124Z,1009.51
2019-05-17T01:02:11.099Z,1009.48
2019-05-17T01:03:11.074Z,1009.46
2019-05-17T01:04:11.054Z,1009.43
2019-05-17T01:05:11.036Z,1009.44
2019-05-17T01:06:11.020Z,1009.43
2019-05-17T01:07:10.992Z,1009.43
2019-05-17T01:08:10.968Z,1009.43
2019-05-17T01:09:10.948Z,1009.41
2019-05-17T01:10:10.932Z,1009.41
2019-05-17T01:11:10.911Z,1009.43
2019-05-17T01:12:10.888Z,1009.40
2019-05-17T01:13:10.866Z,1009.42
2019-05-17T01:14:10.846Z,1009.41
2019-05-17T01:15:10.830Z,1009.37
2019-05-17T01:16:10.813Z,1009.40
2019-05-17T01:17:10.786Z,1009.42
2019-05-17T01:18:10.760Z,1009.42
2019-05-17T01:19:10.739Z,1009.37
2019-05-17T01:20:10.722Z,1009.38
2019-05-17T01:21:10.698Z,1009.39
2019-05-17T01:22:10.678Z,1009.36
2019-05-17T01:23:10.659Z,1009.38
2019-05-17T01:24:10.638Z,1009.36
2019-05-17T01:25:10.616Z,1009.38
2019-05-17T01:26:10.597Z,1009.32
2019-05-17T01:27:10.580Z,1009.35
2019-05-17T01:28:10.555Z,1009.35
2019-05-17T01:29:10.533Z,1009.33
2019-05-17T01:30:10.515Z,1009.33
2019-05-17T01:31:10.491Z,1009.34
2019-05-17T01:32:10.469Z,1009.35
2019-05-17T01:33:10.446Z,1009.37
2019-05-17T01:34:10.422Z,1009.37
2019-05-17T01:35:10.411Z,1009.36
2019-05-17T01:36:10.385Z,1009.33
2019-05-17T01:37:10.363Z,1009.36
2019-05-17T01:38:10.340Z,1009.33
2019-05-17T01:39:17.177Z,1009.34
2019-05-17T01:40:10.305Z,1009.35
2019-05-17T01:41:10.281Z,1009.38
2019-05-17T01:42:10.262Z,1009.39
2019-05-17T01:43:10.238Z,1009.37
2019-05-17T01:44:10.216Z,1009.32
2019-05-17T01:45:10.192Z,1009.37
2019-05-17T01:46:10.172Z,1009.36
2019-05-17T01:47:10.145Z,1009.36
2019-05-17T01:48:10.134Z,1009.39
2019-05-17T01:49:10.113Z,1009.36
2019-05-17T01:50:10.090Z,1009.38
2019-05-17T01:51:10.067Z,1009.37
2019-05-17T01:52:10.045Z,1009.36
2019-05-17T01:53:10.031Z,1009.32
2019-05-17T01:54:10.004Z,1009.33
2019-05-17T01:55:09.986Z,1009.35
2019-05-17T01:56:09.964Z,1009.37
2019-05-17T01:57:09.940Z,1009.40
2019-05-17T01:58:09.922Z,1009.44
2019-05-17T01:59:09.909Z,1009.36
2019-05-17T02:00:09.888Z,1009.39
2019-05-17T02:01:09.858Z,1009.46
2019-05-17T02:02:09.839Z,1009.38
2019-05-17T02:03:09.819Z,1009.40
2019-05-17T02:04:09.795Z,1009.34
2019-05-17T02:05:09.778Z,1009.36
2019-05-17T02:06:09.758Z,1009.34
2019-05-17T02:07:09.734Z,1009.33
2019-05-17T02:08:09.713Z,1009.30
2019-05-17T02:09:09.689Z,1009.28
2019-05-17T02:10:09.696Z,1009.24
2019-05-17T02:11:09.652Z,1009.26
2019-05-17T02:12:09.625Z,1009.25
2019-05-17T02:13:09.613Z,1009.28
2019-05-17T02:14:09.602Z,1009.23
2019-05-17T02:15:09.579Z,1009.26
2019-05-17T02:16:09.541Z,1009.28
2019-05-17T02:17:09.528Z,1009.27
2019-05-17T02:18:09.504Z,1009.30
2019-05-17T02:19:09.486Z,1009.29
2019-05-17T02:20:09.472Z,1009.29
2019-05-17T02:21:09.443Z,1009.28
2019-05-17T02:22:09.421Z,1009.29
2019-05-17T02:23:09.399Z,1009.25
2019-05-17T02:24:09.380Z,1009.26
2019-05-17T02:25:09.364Z,1009.26
2019-05-17T02:26:09.338Z,1009.30
2019-05-17T02:27:09.313Z,1009.30
2019-05-17T02:28:09.294Z,1009.28
2019-05-17T02:29:09.288Z,1009.31
2019-05-17T02:30:09.255Z,1009.32
2019-05-17T02:31:09.234Z,1009.27
2019-05-17T02:32:12.590Z,1009.27
2019-05-17T02:33:12.411Z,1009.27
2019-05-17T02:34:09.178Z,1009.23
2019-05-17T02:35:09.159Z,1009.21
2019-05-17T02:36:09.131Z,1009.18
2019-05-17T02:37:09.119Z,1009.20
2019-05-17T02:38:09.089Z,1009.17
2019-05-17T02:39:09.062Z,1009.19
2019-05-17T02:40:09.064Z,1009.17
2019-05-17T02:41:09.028Z,1009.17
2019-05-17T02:42:09.005Z,1009.17
2019-05-17T02:43:08.985Z,1009.18
2019-05-17T02:44:08.959Z,1009.20
2019-05-17T02:45:08.937Z,1009.18
2019-05-17T02:46:08.926Z,1009.23
2019-05-17T02:47:08.897Z,1009.24
2019-05-17T02:48:08.875Z,1009.26
2019-05-17T02:49:08.858Z,1009.21
2019-05-17T02:50:08.833Z,1009.23
2019-05-17T02:51:08.817Z,1009.19
2019-05-17T02:52:08.807Z,1009.20
2019-05-17T02:53:08.777Z,1009.21
2019-05-17T02:54:08.750Z,1009.22
2019-05-17T02:55:08.729Z,1009.21
2019-05-17T02:56:08.709Z,1009.17
2019-05-17T02:57:08.687Z,1009.21
2019-05-17T02:58:08.675Z,1009.19
2019-05-17T02:59:08.638Z,1009.22
2019-05-17T03:00:08.632Z,1009.19
2019-05-17T03:01:08.605Z,1009.20
2019-05-17T03:02:08.583Z,1009.22
2019-05-17T03:03:08.561Z,1009.18
2019-05-17T03:04:08.543Z,1009.18
2019-05-17T03:05:08.524Z,1009.15
2019-05-17T03:06:08.546Z,1009.15
2019-05-17T03:07:08.479Z,1009.13
2019-05-17T03:08:08.459Z,1009.11
2019-05-17T03:09:08.445Z,1009.14
2019-05-17T03:10:18.364Z,1009.16
2019-05-17T03:11:08.393Z,1009.20
2019-05-17T03:12:08.367Z,1009.20
2019-05-17T03:13:08.355Z,1009.21
2019-05-17T03:14:08.338Z,1009.25
2019-05-17T03:15:08.312Z,1009.19
2019-05-17T03:16:08.287Z,1009.22
2019-05-17T03:17:08.273Z,1009.22
2019-05-17T03:18:08.249Z,1009.17
2019-05-17T03:19:08.227Z,1009.17
2019-05-17T03:20:08.212Z,1009.13
2019-05-17T03:21:08.180Z,1009.15
2019-05-17T03:22:08.235Z,1009.17
2019-05-17T03:23:08.137Z,1009.18
2019-05-17T03:24:08.122Z,1009.17
2019-05-17T03:25:08.095Z,1009.16
2019-05-17T03:26:08.080Z,1009.21
2019-05-17T03:27:08.052Z,1009.17
2019-05-17T03:28:08.035Z,1009.19
2019-05-17T03:29:08.014Z,1009.20
2019-05-17T03:30:07.987Z,1009.21
2019-05-17T03:31:09.452Z,1009.21
2019-05-17T03:32:09.514Z,1009.20
2019-05-17T03:33:08.306Z,1009.16
2019-05-17T03:34:07.907Z,1009.14
2019-05-17T03:35:08.079Z,1009.20
2019-05-17T03:36:07.965Z,1009.15
2019-05-17T03:37:08.000Z,1009.14
2019-05-17T03:38:07.823Z,1009.19
2019-05-17T03:39:07.805Z,1009.17
2019-05-17T03:40:23.303Z,1009.15
2019-05-17T03:41:18.157Z,1009.19
2019-05-17T03:42:07.754Z,1009.19
2019-05-17T03:43:07.723Z,1009.17
2019-05-17T03:44:07.690Z,1009.15
2019-05-17T03:45:07.681Z,1009.17
2019-05-17T03:46:07.653Z,1009.14
2019-05-17T03:47:07.640Z,1009.15
2019-05-17T03:48:07.608Z,1009.12
2019-05-17T03:49:07.585Z,1009.14
2019-05-17T03:50:07.572Z,1009.15
2019-05-17T03:51:07.544Z,1009.15
2019-05-17T03:52:07.535Z,1009.17
2019-05-17T03:53:07.503Z,1009.16
2019-05-17T03:54:07.486Z,1009.20
2019-05-17T03:55:07.461Z,1009.21
2019-05-17T03:56:07.437Z,1009.23
2019-05-17T03:57:07.417Z,1009.23
2019-05-17T03:58:07.393Z,1009.26
2019-05-17T03:59:07.378Z,1009.27
2019-05-17T04:00:07.352Z,1009.23
2019-05-17T04:01:07.334Z,1009.26
2019-05-17T04:02:07.313Z,1009.19
2019-05-17T04:03:07.292Z,1009.20
2019-05-17T04:04:07.269Z,1009.24
2019-05-17T04:05:07.249Z,1009.16
2019-05-17T04:06:07.229Z,1009.19
2019-05-17T04:07:07.212Z,1009.21
2019-05-17T04:08:07.204Z,1009.18
2019-05-17T04:09:07.168Z,1009.16
2019-05-17T04:10:07.144Z,1009.13
2019-05-17T04:11:21.162Z,1009.17
2019-05-17T04:12:07.106Z,1009.16
2019-05-17T04:13:07.086Z,1009.13
2019-05-17T04:14:07.058Z,1009.19
2019-05-17T04:15:07.038Z,1009.14
2019-05-17T04:16:09.177Z,1009.14
2019-05-17T04:17:07.006Z,1009.10
2019-05-17T04:18:06.981Z,1009.09
2019-05-17T04:19:06.951Z,1009.08
2019-05-17T04:20:06.931Z,1009.06
2019-05-17T04:21:06.909Z,1009.05
2019-05-17T04:22:06.891Z,1009.05
2019-05-17T04:23:06.868Z,1009.03
2019-05-17T04:24:06.859Z,1009.06
2019-05-17T04:25:06.828Z,1009.08
2019-05-17T04:26:06.803Z,1009.05
2019-05-17T04:27:06.787Z,1009.09
2019-05-17T04:28:06.781Z,1009.05
2019-05-17T04:29:06.745Z,1009.05
2019-05-17T04:30:06.725Z,1009.09
2019-05-17T04:31:06.701Z,1009.07
2019-05-17T04:32:06.678Z,1009.08
2019-05-17T04:33:06.660Z,1009.05
2019-05-17T04:34:06.641Z,1009.05
2019-05-17T04:35:06.616Z,1009.06
2019-05-17T04:36:06.595Z,1009.02
2019-05-17T04:37:06.569Z,1009.02
2019-05-17T04:38:06.554Z,1009.02
2019-05-17T04:39:06.532Z,1008.98
2019-05-17T04:40:06.508Z,1008.98
2019-05-17T04:41:06.489Z,1009.03
2019-05-17T04:42:06.469Z,1009.01
2019-05-17T04:43:06.449Z,1008.99
2019-05-17T04:44:06.428Z,1009.01
2019-05-17T04:45:06.407Z,1009.03
2019-05-17T04:46:06.392Z,1009.01
2019-05-17T04:47:06.371Z,1009.05
2019-05-17T04:48:06.342Z,1009.04
2019-05-17T04:49:06.326Z,1009.05
2019-05-17T04:50:06.314Z,1009.03
2019-05-17T04:51:06.282Z,1009.03
2019-05-17T04:52:06.266Z,1009.05
2019-05-17T04:53:06.240Z,1008.99
2019-05-17T04:54:06.221Z,1008.97
2019-05-17T04:55:06.206Z,1009.00
2019-05-17T04:56:06.176Z,1008.98
2019-05-17T04:57:06.160Z,1009.02
2019-05-17T04:58:06.136Z,1009.02
2019-05-17T04:59:06.139Z,1009.03
2019-05-17T05:00:06.094Z,1008.95
2019-05-17T05:01:06.076Z,1008.96
2019-05-17T05:02:06.050Z,1008.91
2019-05-17T05:03:06.031Z,1008.93
2019-05-17T05:04:06.026Z,1008.96
2019-05-17T05:05:05.991Z,1008.93
2019-05-17T05:06:05.976Z,1008.97
2019-05-17T05:07:05.948Z,1009.02
2019-05-17T05:08:05.928Z,1009.00
2019-05-17T05:09:05.907Z,1009.01
2019-05-17T05:10:05.883Z,1008.98
2019-05-17T05:11:05.865Z,1008.95
2019-05-17T05:12:06.575Z,1008.91
2019-05-17T05:13:05.825Z,1008.99
2019-05-17T05:14:05.809Z,1009.02
2019-05-17T05:15:05.786Z,1009.02
2019-05-17T05:16:05.771Z,1009.03
2019-05-17T05:17:05.741Z,1009.05
2019-05-17T05:18:05.724Z,1009.11
2019-05-17T05:19:05.703Z,1009.06
2019-05-17T05:20:05.682Z,1009.10
2019-05-17T05:21:05.660Z,1009.12
2019-05-17T05:22:05.636Z,1009.14
2019-05-17T05:23:05.620Z,1009.10
2019-05-17T05:24:05.606Z,1009.10
2019-05-17T05:25:05.584Z,1009.08
2019-05-17T05:26:05.557Z,1009.08
2019-05-17T05:27:05.537Z,1009.07
2019-05-17T05:28:05.517Z,1009.08
2019-05-17T05:29:05.512Z,1009.10
2019-05-17T05:30:05.476Z,1009.06
2019-05-17T05:31:05.454Z,1009.09
2019-05-17T05:32:05.441Z,1009.09
2019-05-17T05:33:05.410Z,1009.09
2019-05-17T05:34:05.394Z,1009.06
2019-05-17T05:35:05.375Z,1009.10
2019-05-17T05:36:05.354Z,1009.05
2019-05-17T05:37:05.334Z,1009.06
2019-05-17T05:38:05.311Z,1009.08
2019-05-17T05:39:05.298Z,1009.12
2019-05-17T05:40:05.280Z,1009.08
2019-05-17T05:41:05.260Z,1009.03
2019-05-17T05:42:10.212Z,1009.10
2019-05-17T05:43:05.212Z,1009.10
2019-05-17T05:44:05.193Z,1009.12
2019-05-17T05:45:05.184Z,1009.10
2019-05-17T05:46:05.155Z,1009.06
2019-05-17T05:47:05.135Z,1009.06
2019-05-17T05:48:05.111Z,1009.08
2019-05-17T05:49:05.096Z,1009.08
2019-05-17T05:50:05.078Z,1009.09
2019-05-17T05:51:05.724Z,1009.07
2019-05-17T05:52:05.037Z,1009.04
2019-05-17T05:53:05.023Z,1009.07
2019-05-17T05:54:05.000Z,1009.15
2019-05-17T05:55:04.977Z,1009.14
2019-05-17T05:56:04.960Z,1009.15
2019-05-17T05:57:04.939Z,1009.15
2019-05-17T05:58:04.917Z,1009.13
2019-05-17T05:59:04.898Z,1009.10
2019-05-17T06:00:04.882Z,1009.09
2019-05-17T06:01:04.869Z,1009.06
2019-05-17T06:02:04.838Z,1009.02
2019-05-17T06:03:04.836Z,1009.06
2019-05-17T06:04:04.803Z,1009.04
2019-05-17T06:05:04.784Z,1009.10
2019-05-17T06:06:04.764Z,1009.13
2019-05-17T06:07:04.746Z,1009.10
2019-05-17T06:08:04.724Z,1009.13
2019-05-17T06:09:04.703Z,1009.13
2019-05-17T06:10:04.688Z,1009.08
2019-05-17T06:11:04.672Z,1009.10
2019-05-17T06:12:04.645Z,1009.09
2019-05-17T06:13:04.647Z,1009.07
2019-05-17T06:14:04.611Z,1009.06
2019-05-17T06:15:04.591Z,1009.09
2019-05-17T06:16:04.575Z,1009.03
2019-05-17T06:17:04.556Z,1009.07
2019-05-17T06:18:04.536Z,1008.99
2019-05-17T06:19:04.519Z,1008.99
2019-05-17T06:20:04.499Z,1009.05
2019-05-17T06:21:04.480Z,1008.93
2019-05-17T06:22:04.463Z,1009.18
2019-05-17T06:23:04.447Z,1009.00
2019-05-17T06:24:04.426Z,1009.08
2019-05-17T06:25:04.414Z,1009.11
2019-05-17T06:26:04.701Z,1009.19
2019-05-17T06:27:04.368Z,1009.07
2019-05-17T06:28:04.345Z,1009.16
2019-05-17T06:29:04.325Z,1009.16
2019-05-17T06:30:04.305Z,1009.00
2019-05-17T06:31:04.294Z,1009.01
2019-05-17T06:32:04.269Z,1009.11
2019-05-17T06:33:04.249Z,1009.29
2019-05-17T06:34:04.239Z,1009.13
2019-05-17T06:35:04.213Z,1009.05
2019-05-17T06:36:04.195Z,1009.06
2019-05-17T06:37:04.179Z,1009.05
2019-05-17T06:38:04.161Z,1009.05
2019-05-17T06:39:04.141Z,1009.08
2019-05-17T06:40:04.125Z,1009.06
2019-05-17T06:41:04.106Z,1009.05
2019-05-17T06:42:04.085Z,1009.05
2019-05-17T06:43:04.453Z,1009.08
2019-05-17T06:44:04.058Z,1009.03
2019-05-17T06:45:04.031Z,1008.97
2019-05-17T06:46:04.016Z,1008.94
2019-05-17T06:47:03.994Z,1008.93
2019-05-17T06:48:03.975Z,1008.95
2019-05-17T06:49:03.953Z,1008.97
2019-05-17T06:50:03.937Z,1008.92
2019-05-17T06:51:03.926Z,1008.87
2019-05-17T06:52:03.897Z,1008.88
2019-05-17T06:53:03.890Z,1008.88
2019-05-17T06:54:03.863Z,1008.91
2019-05-17T06:55:05.979Z,1008.87
2019-05-17T06:56:03.831Z,1008.91
2019-05-17T06:57:03.807Z,1008.92
2019-05-17T06:58:03.793Z,1008.95
2019-05-17T06:59:03.773Z,1008.94
2019-05-17T07:00:11.121Z,1008.90
2019-05-17T07:01:03.736Z,1008.93
2019-05-17T07:02:03.719Z,1008.93
2019-05-17T07:03:03.699Z,1008.94
2019-05-17T07:04:03.682Z,1008.90
2019-05-17T07:05:03.664Z,1008.89
2019-05-17T07:06:03.650Z,1008.88
2019-05-17T07:07:03.645Z,1008.84
2019-05-17T07:08:03.609Z,1008.93
2019-05-17T07:09:03.588Z,1008.93
2019-05-17T07:10:03.580Z,1008.90
2019-05-17T07:11:03.562Z,1008.90
2019-05-17T07:12:03.539Z,1008.92
2019-05-17T07:13:03.525Z,1008.88
2019-05-17T07:14:03.501Z,1008.87
2019-05-17T07:15:03.491Z,1008.93
2019-05-17T07:16:03.465Z,1008.92
2019-05-17T07:17:03.447Z,1008.89
2019-05-17T07:18:03.432Z,1008.96
2019-05-17T07:19:03.416Z,1008.96
2019-05-17T07:20:03.396Z,1008.97
2019-05-17T07:21:03.719Z,1008.92
2019-05-17T07:22:03.364Z,1008.89
2019-05-17T07:23:03.357Z,1008.93
2019-05-17T07:24:03.330Z,1008.88
2019-05-17T07:25:03.310Z,1008.90
2019-05-17T07:26:03.297Z,1008.95
2019-05-17T07:27:03.277Z,1008.92
2019-05-17T07:28:03.262Z,1008.89
2019-05-17T07:29:03.244Z,1008.90
2019-05-17T07:30:03.227Z,1008.90
2019-05-17T07:31:03.210Z,1008.91
2019-05-17T07:32:03.197Z,1008.87
2019-05-17T07:33:03.176Z,1008.88
2019-05-17T07:34:03.161Z,1008.92
2019-05-17T07:35:03.142Z,1008.94
2019-05-17T07:36:03.128Z,1008.92
2019-05-17T07:37:03.108Z,1008.93
2019-05-17T07:38:03.097Z,1009.07
2019-05-17T07:39:03.078Z,1012.29
2019-05-17T07:40:05.280Z,1017.12
2019-05-17T07:41:03.044Z,1022.13
2019-05-17T07:42:03.029Z,1025.96
2019-05-17T07:43:10.478Z,1026.23
2019-05-17T07:44:02.998Z,1026.01
2019-05-17T07:45:02.984Z,1025.52
2019-05-17T07:46:02.966Z,1024.43
2019-05-17T07:47:02.956Z,1023.79
2019-05-17T07:48:02.941Z,1023.79
2019-05-17T07:49:02.926Z,1025.11
2019-05-17T07:50:02.914Z,1024.83
2019-05-17T07:51:02.903Z,1023.31
2019-05-17T07:52:02.889Z,1023.15
2019-05-17T07:53:02.877Z,1023.60
2019-05-17T07:54:02.866Z,1023.46
2019-05-17T07:55:02.868Z,1022.98
2019-05-17T07:56:02.849Z,1022.01
2019-05-17T07:57:02.844Z,1022.12
2019-05-17T07:58:02.824Z,1022.14
2019-05-17T07:59:03.628Z,1022.33
2019-05-17T08:00:02.807Z,1021.87
2019-05-17T08:01:02.795Z,1020.73
2019-05-17T08:02:02.790Z,1020.11
2019-05-17T08:03:02.875Z,1019.65
2019-05-17T08:04:02.774Z,1019.03
2019-05-17T08:05:02.763Z,1018.60
2019-05-17T08:06:02.769Z,1017.92
2019-05-17T08:07:02.754Z,1016.89
2019-05-17T08:08:02.741Z,1016.10
2019-05-17T08:09:04.454Z,1015.83
2019-05-17T08:10:02.733Z,1015.83
2019-05-17T08:11:02.722Z,1015.56
2019-05-17T08:12:05.340Z,1015.33
2019-05-17T08:13:02.716Z,1015.03
2019-05-17T08:14:02.704Z,1014.21
2019-05-17T08:15:02.700Z,1013.58
2019-05-17T08:16:02.698Z,1013.23
2019-05-17T08:17:02.695Z,1012.88
2019-05-17T08:18:02.693Z,1012.26
2019-05-17T08:19:02.683Z,1011.66
2019-05-17T08:20:02.688Z,1011.17
2019-05-17T08:21:02.676Z,1010.86
2019-05-17T08:22:02.672Z,1010.62
2019-05-17T08:23:05.074Z,1010.47
2019-05-17T08:24:02.665Z,1010.27
2019-05-17T08:25:02.660Z,1010.10
2019-05-17T08:26:02.663Z,1009.90
2019-05-17T08:27:02.655Z,1009.71
2019-05-17T08:28:02.653Z,1009.54
2019-05-17T08:29:02.647Z,1009.44
2019-05-17T08:30:02.652Z,1009.32
2019-05-17T08:31:02.647Z,1009.21
2019-05-17T08:32:02.646Z,1009.15
2019-05-17T08:33:02.649Z,1009.10
2019-05-17T08:34:02.635Z,1009.06
2019-05-17T08:35:02.635Z,1009.05
2019-05-17T08:36:02.631Z,1009.05
2019-05-17T08:37:02.631Z,1009.06
2019-05-17T08:38:02.629Z,1008.99
2019-05-17T08:39:02.628Z,1008.89
2019-05-17T08:40:02.628Z,1008.86
2019-05-17T08:41:02.626Z,1008.88
2019-05-17T08:42:02.620Z,1008.85
2019-05-17T08:43:02.619Z,1008.86
2019-05-17T08:44:02.621Z,1008.91
2019-05-17T08:45:02.621Z,1008.90
2019-05-17T08:46:02.933Z,1008.90
2019-05-17T08:47:02.625Z,1008.95
2019-05-17T08:48:02.623Z,1008.95
2019-05-17T08:49:02.615Z,1008.93
2019-05-17T08:50:02.609Z,1008.92
2019-05-17T08:51:45.153Z,1009.02
2019-05-17T08:52:45.149Z,1009.01
2019-05-17T08:55:29.905Z,1009.04
2019-05-17T08:56:30.691Z,1009.04
2019-05-17T08:57:30.297Z,1009.04
2019-05-17T08:58:29.725Z,1009.06
2019-05-17T08:59:29.690Z,1009.04
2019-05-17T09:00:31.448Z,1009.04
2019-05-17T09:01:30.205Z,1009.00
2019-05-17T09:02:29.862Z,1008.96
2019-05-17T09:03:30.318Z,1008.93
2019-05-17T09:04:29.748Z,1008.94
2019-05-17T09:05:30.216Z,1008.93
2019-05-17T09:06:29.297Z,1008.94
2019-05-17T09:07:29.520Z,1008.98
2019-05-17T09:08:29.876Z,1009.01
2019-05-17T09:09:31.445Z,1008.98
2019-05-17T09:10:29.973Z,1008.82
2019-05-17T09:11:30.249Z,1008.87
2019-05-17T09:12:29.993Z,1008.87
2019-05-17T09:13:29.822Z,1008.98
2019-05-17T09:14:29.443Z,1009.04
2019-05-17T09:15:29.645Z,1009.15
2019-05-17T09:16:30.707Z,1009.27
2019-05-17T09:17:29.966Z,1009.45
2019-05-17T09:18:30.135Z,1009.47
2019-05-17T09:19:29.977Z,1009.46
2019-05-17T09:21:10.973Z,1008.91
2019-05-17T09:22:10.974Z,1008.65
2019-05-17T09:23:10.980Z,1008.45
2019-05-17T09:24:10.974Z,1008.45
2019-05-17T09:25:15.768Z,1008.91
2019-05-17T09:26:10.974Z,1008.93
2019-05-17T09:27:10.973Z,1008.40
2019-05-17T09:28:10.972Z,1008.36
2019-05-17T09:29:10.978Z,1008.29
2019-05-17T09:30:10.971Z,1008.40
2019-05-17T09:31:10.976Z,1008.22
2019-05-17T09:32:10.971Z,1008.26
2019-05-17T09:33:11.434Z,1008.98
2019-05-17T09:34:10.966Z,1008.30
2019-05-17T09:35:11.175Z,1008.99
2019-05-17T09:36:10.974Z,1008.57
2019-05-17T09:37:10.970Z,1008.10
2019-05-17T09:38:10.967Z,1008.10
2019-05-17T09:39:10.963Z,1008.39
2019-05-17T09:40:10.958Z,1008.21
2019-05-17T09:41:10.954Z,1008.27
2019-05-17T09:42:10.957Z,1008.57
2019-05-17T09:43:10.956Z,1008.96
2019-05-17T09:44:15.948Z,1008.92
2019-05-17T09:45:10.950Z,1008.97
2019-05-17T09:46:53.491Z,1008.89
2019-05-17T09:47:53.493Z,1008.78
2019-05-17T09:48:53.485Z,1008.65
2019-05-17T09:49:53.485Z,1008.44
2019-05-17T09:50:53.488Z,1008.36
2019-05-17T09:51:53.477Z,1008.20
2019-05-17T09:52:53.481Z,1008.10
2019-05-17T09:53:53.480Z,1007.99
2019-05-17T09:54:53.472Z,1007.97
2019-05-17T09:55:53.473Z,1008.01
2019-05-17T09:56:53.473Z,1008.02
2019-05-17T09:57:53.473Z,1008.02
2019-05-17T09:58:53.468Z,1007.95
2019-05-17T09:59:55.897Z,1007.93
2019-05-17T10:00:53.463Z,1007.94
2019-05-17T10:01:53.461Z,1007.96
2019-05-17T10:02:53.469Z,1007.92
2019-05-17T10:03:53.457Z,1007.92
2019-05-17T10:04:53.460Z,1007.92
2019-05-17T10:05:53.463Z,1007.91
2019-05-17T10:06:53.450Z,1007.94
2019-05-17T10:07:53.442Z,1007.89
2019-05-17T10:08:53.447Z,1007.87
2019-05-17T10:09:53.445Z,1007.89
2019-05-17T10:11:04.797Z,1008.26
2019-05-17T10:11:53.539Z,1009.45
2019-05-17T10:12:53.440Z,1009.42
2019-05-17T10:13:53.432Z,1010.00
2019-05-17T10:14:53.430Z,1010.04
2019-05-17T10:15:53.430Z,1010.08
2019-05-17T10:16:53.454Z,1010.05
2019-05-17T10:17:53.426Z,1009.77
2019-05-17T10:18:53.424Z,1009.68
2019-05-17T10:19:53.423Z,1010.05
2019-05-17T10:20:53.424Z,1009.98
2019-05-17T10:21:53.430Z,1010.12
2019-05-17T10:22:53.417Z,1010.07
2019-05-17T10:23:53.419Z,1010.08
2019-05-17T10:24:53.418Z,1009.92
2019-05-17T10:25:53.412Z,1009.44
2019-05-17T10:26:53.416Z,1009.86
2019-05-17T10:27:53.411Z,1009.74
2019-05-17T10:28:53.413Z,1009.88
2019-05-17T10:29:53.408Z,1009.88
2019-05-17T10:30:53.411Z,1009.89
2019-05-17T10:31:53.412Z,1008.65
2019-05-17T10:32:53.412Z,1009.21
2019-05-17T10:33:58.909Z,1008.61
2019-05-17T10:34:53.412Z,1007.83
2019-05-17T10:35:53.412Z,1007.78
2019-05-17T10:36:53.407Z,1007.86
2019-05-17T10:37:53.408Z,1007.77
2019-05-17T10:38:53.402Z,1007.75
2019-05-17T10:39:53.406Z,1008.54
2019-05-17T10:40:53.403Z,1007.87
2019-05-17T10:41:53.420Z,1007.73
2019-05-17T10:42:53.394Z,1007.74
2019-05-17T10:43:53.397Z,1007.63
2019-05-17T10:44:54.754Z,1007.59
2019-05-17T10:45:53.399Z,1007.58
2019-05-17T10:46:53.394Z,1007.58
2019-05-17T10:47:53.404Z,1007.53
2019-05-17T10:48:53.390Z,1007.55
2019-05-17T10:49:53.386Z,1007.59
2019-05-17T10:50:53.388Z,1007.63
2019-05-17T10:51:53.382Z,1007.66
2019-05-17T10:52:53.377Z,1007.73
2019-05-17T10:53:53.374Z,1007.80
2019-05-17T10:54:53.374Z,1009.23
2019-05-17T10:55:53.374Z,1007.80
2019-05-17T10:56:53.372Z,1007.75
2019-05-17T10:57:53.365Z,1007.70
2019-05-17T10:58:53.363Z,1007.65
2019-05-17T10:59:53.354Z,1007.59
2019-05-17T11:00:53.355Z,1007.57
2019-05-17T11:01:53.353Z,1007.58
2019-05-17T11:02:53.441Z,1007.53
2019-05-17T11:03:53.336Z,1007.60
2019-05-17T11:04:53.339Z,1007.57
2019-05-17T11:05:53.330Z,1007.55
2019-05-17T11:06:53.325Z,1007.58
2019-05-17T11:07:53.330Z,1007.56
2019-05-17T11:08:53.313Z,1007.56
2019-05-17T11:09:53.313Z,1007.59
2019-05-17T11:10:53.304Z,1007.56
2019-05-17T11:11:53.296Z,1007.58
2019-05-17T11:12:53.294Z,1007.60
2019-05-17T11:13:53.282Z,1007.61
2019-05-17T11:15:09.850Z,1007.62
2019-05-17T11:15:53.272Z,1007.59
2019-05-17T11:16:53.270Z,1007.67
2019-05-17T11:17:53.258Z,1007.65
2019-05-17T11:18:53.248Z,1007.62
2019-05-17T11:19:53.247Z,1007.63
2019-05-17T11:20:53.238Z,1007.62
2019-05-17T11:21:53.255Z,1007.61
2019-05-17T11:22:53.225Z,1007.83
2019-05-17T11:23:53.231Z,1007.61
2019-05-17T11:24:53.214Z,1007.50
2019-05-17T11:25:53.199Z,1007.45
2019-05-17T11:26:53.198Z,1007.42
2019-05-17T11:27:53.182Z,1007.45
2019-05-17T11:28:53.183Z,1007.50
2019-05-17T11:29:53.170Z,1007.49
2019-05-17T11:30:53.161Z,1007.46
2019-05-17T11:31:53.154Z,1007.61
2019-05-17T11:32:53.144Z,1007.46
2019-05-17T11:33:53.137Z,1007.49
2019-05-17T11:34:53.129Z,1007.43
2019-05-17T11:35:53.121Z,1007.40
2019-05-17T11:36:53.112Z,1007.44
2019-05-17T11:37:53.101Z,1007.41
2019-05-17T11:38:53.094Z,1007.42
2019-05-17T11:39:53.088Z,1007.47
2019-05-17T11:40:53.082Z,1007.48
2019-05-17T11:41:53.064Z,1007.42
2019-05-17T11:42:53.060Z,1007.50
2019-05-17T11:43:53.043Z,1007.45
2019-05-17T11:44:53.043Z,1007.47
2019-05-17T11:45:53.035Z,1007.45
2019-05-17T11:46:53.021Z,1007.50
2019-05-17T11:47:53.011Z,1007.46
2019-05-17T11:48:53.008Z,1007.49
2019-05-17T11:49:52.991Z,1007.56
2019-05-17T11:50:55.110Z,1007.74
2019-05-17T11:51:52.972Z,1007.88
2019-05-17T11:52:52.972Z,1008.36
2019-05-17T11:53:52.956Z,1008.32
2019-05-17T11:54:52.949Z,1008.33
2019-05-17T11:55:52.941Z,1007.94
2019-05-17T11:56:54.143Z,1007.72
2019-05-17T11:57:52.924Z,1007.57
2019-05-17T11:58:52.929Z,1007.50
2019-05-17T11:59:52.915Z,1007.51
2019-05-17T12:00:52.909Z,1007.46
2019-05-17T12:01:52.897Z,1007.42
2019-05-17T12:02:52.897Z,1007.41
2019-05-17T12:03:52.886Z,1007.38
2019-05-17T12:04:52.883Z,1007.36
2019-05-17T12:05:52.874Z,1007.39
2019-05-17T12:06:52.870Z,1007.40
2019-05-17T12:07:52.859Z,1007.38
2019-05-17T12:08:52.860Z,1007.45